Time;durP1;ratioP1;P1;durP2;ratioP2;P2;SDS_P1;SDS_P2;PMS_P1;PMS_P2;Temp;Humidity;BMP_temperature;BMP_pressure;BME280_temperature;BME280_humidity;BME280_pressure;Samples;Min_cycle;Max_cycle;Signal;HPM_P1;HPM_P2
2023/03/17 00:00:26;;;;;;;8.33;2.80;;;3.90;99.90;;;;;;4136818;28;20504;-74
2023/03/17 00:02:28;;;;;;;5.90;2.70;;;3.80;99.90;;;;;;4137029;28;20487;-74
2023/03/17 00:04:30;;;;;;;6.90;2.63;;;3.80;99.90;;;;;;4134016;28;20535;-75
2023/03/17 00:06:34;;;;;;;6.10;3.00;;;3.90;99.90;;;;;;4139422;28;20446;-75
2023/03/17 00:08:38;;;;;;;4.00;2.30;;;3.80;99.90;;;;;;4133346;28;20470;-73
2023/03/17 00:10:40;;;;;;;6.30;2.50;;;3.80;99.90;;;;;;4134736;28;20481;-75
2023/03/17 00:12:42;;;;;;;6.27;2.30;;;3.80;99.90;;;;;;4140279;28;20455;-74
2023/03/17 00:14:45;;;;;;;4.07;2.37;;;3.80;99.90;;;;;;4137219;28;20817;-75
2023/03/17 00:16:50;;;;;;;4.93;2.90;;;3.80;99.90;;;;;;4134826;28;20447;-73
2023/03/17 00:18:53;;;;;;;5.57;2.67;;;3.80;99.90;;;;;;4134300;28;20535;-74
2023/03/17 00:20:58;;;;;;;6.90;3.10;;;3.70;99.90;;;;;;4137185;28;20972;-73
2023/03/17 00:23:03;;;;;;;6.17;3.10;;;3.70;99.90;;;;;;4137306;28;20892;-73
2023/03/17 00:25:17;;;;;;;5.40;2.43;;;3.70;99.90;;;;;;4136837;28;20478;-74
2023/03/17 00:27:19;;;;;;;4.07;2.50;;;3.70;99.90;;;;;;4134980;28;20486;-74
2023/03/17 00:29:21;;;;;;;6.23;2.80;;;3.70;99.90;;;;;;4135984;28;20455;-75
2023/03/17 00:31:26;;;;;;;4.90;2.43;;;3.70;99.90;;;;;;4133999;28;20533;-74
2023/03/17 00:33:29;;;;;;;5.87;2.60;;;3.70;99.90;;;;;;4138777;28;20454;-73
2023/03/17 00:35:32;;;;;;;7.23;3.10;;;3.60;99.90;;;;;;4135733;28;20904;-75
2023/03/17 00:37:34;;;;;;;4.70;2.90;;;3.70;99.90;;;;;;4136726;28;20563;-73
2023/03/17 00:39:36;;;;;;;6.93;2.70;;;3.60;99.90;;;;;;4137191;28;20550;-75
2023/03/17 00:41:39;;;;;;;5.60;2.60;;;3.60;99.90;;;;;;4136468;28;20492;-75
2023/03/17 00:43:41;;;;;;;5.17;2.67;;;3.60;99.90;;;;;;4138213;28;20546;-75
2023/03/17 00:45:44;;;;;;;5.87;2.80;;;3.60;99.90;;;;;;4150375;28;20512;-74
2023/03/17 00:47:46;;;;;;;9.13;2.83;;;3.60;99.90;;;;;;4137381;28;20498;-74
2023/03/17 00:49:48;;;;;;;6.93;2.57;;;3.60;99.90;;;;;;4149732;28;20465;-75
2023/03/17 00:51:50;;;;;;;5.07;2.70;;;3.60;99.90;;;;;;4133781;28;20491;-74
2023/03/17 00:53:52;;;;;;;6.70;2.63;;;3.60;99.90;;;;;;4135042;28;20506;-74
2023/03/17 00:55:55;;;;;;;6.57;2.70;;;3.60;99.90;;;;;;4142955;28;20505;-74
2023/03/17 00:57:58;;;;;;;6.30;2.60;;;3.60;99.90;;;;;;4149255;28;20502;-74
2023/03/17 01:00:00;;;;;;;5.03;2.43;;;3.70;99.90;;;;;;4135445;28;20522;-74
2023/03/17 01:02:02;;;;;;;6.20;2.53;;;3.70;99.90;;;;;;4137359;28;20454;-74
2023/03/17 01:04:04;;;;;;;6.30;2.83;;;3.70;99.90;;;;;;4134379;28;20450;-74
2023/03/17 01:06:08;;;;;;;4.57;2.50;;;3.70;99.90;;;;;;4135005;28;20526;-75
2023/03/17 01:08:10;;;;;;;7.93;2.40;;;3.70;99.90;;;;;;4135471;28;20971;-74
2023/03/17 01:10:17;;;;;;;5.97;2.40;;;3.70;99.90;;;;;;4137407;28;20478;-75
2023/03/17 01:12:20;;;;;;;6.93;3.23;;;3.80;99.90;;;;;;4137565;28;20526;-74
2023/03/17 01:14:24;;;;;;;4.40;2.20;;;3.80;99.90;;;;;;4135547;28;20484;-75
2023/03/17 01:16:27;;;;;;;4.97;2.30;;;3.80;99.90;;;;;;4136619;28;20467;-74
2023/03/17 01:18:29;;;;;;;7.40;2.20;;;3.80;99.90;;;;;;4136610;28;20491;-75
2023/03/17 01:20:33;;;;;;;4.63;2.10;;;3.80;99.90;;;;;;4137392;28;20507;-74
2023/03/17 01:22:35;;;;;;;5.47;2.17;;;3.90;99.90;;;;;;4137031;28;20530;-73
2023/03/17 01:24:38;;;;;;;4.10;2.17;;;3.90;99.90;;;;;;4137008;28;20978;-74
2023/03/17 01:26:40;;;;;;;5.73;2.30;;;3.90;99.90;;;;;;4141897;28;20444;-74
2023/03/17 01:28:42;;;;;;;5.30;2.73;;;3.90;99.90;;;;;;4140155;28;20451;-75
2023/03/17 01:30:47;;;;;;;6.30;2.30;;;3.90;99.90;;;;;;4137747;28;21080;-75
2023/03/17 01:32:49;;;;;;;4.87;2.10;;;3.90;99.90;;;;;;4137448;28;21147;-75
2023/03/17 01:34:52;;;;;;;3.57;2.40;;;3.90;99.90;;;;;;4140006;28;20486;-73
2023/03/17 01:36:54;;;;;;;4.10;2.10;;;4.00;99.90;;;;;;4139484;28;20469;-75
2023/03/17 01:38:56;;;;;;;4.10;1.90;;;4.00;99.90;;;;;;4139688;28;20964;-74
2023/03/17 01:40:58;;;;;;;5.70;2.40;;;4.00;99.90;;;;;;4139136;28;20901;-71
2023/03/17 01:43:15;;;;;;;5.47;2.20;;;4.00;99.90;;;;;;4141421;28;20491;-73
2023/03/17 01:45:50;;;;;;;4.07;1.90;;;4.00;99.90;;;;;;4139688;28;20470;-75
2023/03/17 01:47:53;;;;;;;8.43;2.87;;;4.00;99.90;;;;;;4129726;28;20468;-74
2023/03/17 01:49:56;;;;;;;6.40;2.27;;;3.90;99.90;;;;;;4139070;28;20854;-75
2023/03/17 01:52:03;;;;;;;4.80;1.90;;;4.00;99.90;;;;;;4137911;28;20521;-74
2023/03/17 01:54:11;;;;;;;6.23;2.20;;;4.00;99.90;;;;;;4136210;28;20948;-74
2023/03/17 01:56:14;;;;;;;5.97;2.23;;;4.00;99.90;;;;;;4136623;28;20465;-75
2023/03/17 01:58:19;;;;;;;5.90;2.67;;;4.00;99.90;;;;;;4140632;28;20483;-75
2023/03/17 02:00:23;;;;;;;4.27;2.40;;;4.00;99.90;;;;;;4138271;28;20960;-74
2023/03/17 02:02:30;;;;;;;4.03;2.00;;;4.00;99.90;;;;;;4136559;28;20491;-74
2023/03/17 02:04:34;;;;;;;3.77;1.80;;;4.00;99.90;;;;;;4142454;28;20921;-75
2023/03/17 02:06:37;;;;;;;5.87;2.27;;;3.90;99.90;;;;;;4141274;28;20501;-74
2023/03/17 02:08:39;;;;;;;6.50;2.23;;;3.90;99.90;;;;;;4141500;28;20493;-75
2023/03/17 02:10:42;;;;;;;5.07;2.13;;;3.90;99.90;;;;;;4140188;28;20608;-73
2023/03/17 02:12:48;;;;;;;5.93;2.40;;;3.90;99.90;;;;;;4139866;28;20463;-75
2023/03/17 02:14:50;;;;;;;4.90;2.70;;;3.90;99.90;;;;;;4139615;28;20491;-75
2023/03/17 02:16:53;;;;;;;4.30;2.07;;;3.90;99.90;;;;;;4137626;28;20462;-75
2023/03/17 02:18:55;;;;;;;3.30;2.00;;;3.90;99.90;;;;;;4137496;28;20471;-74
2023/03/17 02:21:32;;;;;;;5.07;2.00;;;3.90;99.90;;;;;;4139874;28;20526;-73
2023/03/17 02:23:35;;;;;;;5.37;2.00;;;3.90;99.90;;;;;;4135432;28;20465;-74
2023/03/17 02:25:38;;;;;;;5.17;1.90;;;3.90;99.90;;;;;;4140560;28;20486;-72
2023/03/17 02:27:45;;;;;;;4.73;2.17;;;3.90;99.90;;;;;;4141979;28;20504;-75
2023/03/17 02:29:48;;;;;;;4.57;2.10;;;3.80;99.90;;;;;;4135749;28;20460;-76
2023/03/17 02:31:50;;;;;;;5.10;2.30;;;3.80;99.90;;;;;;4137651;28;20470;-75
2023/03/17 02:33:52;;;;;;;3.23;2.00;;;3.80;99.90;;;;;;4139444;28;20549;-74
2023/03/17 02:35:55;;;;;;;4.80;2.17;;;3.80;99.90;;;;;;4139779;28;21029;-74
2023/03/17 02:37:59;;;;;;;4.00;1.77;;;3.70;99.90;;;;;;4138163;28;20549;-75
2023/03/17 02:40:04;;;;;;;2.77;1.63;;;3.80;99.90;;;;;;4137501;28;20479;-73
2023/03/17 02:42:07;;;;;;;4.07;2.10;;;3.70;99.90;;;;;;4139915;28;20566;-74
2023/03/17 02:44:10;;;;;;;5.60;2.10;;;3.70;99.90;;;;;;4136681;28;20528;-75
2023/03/17 02:46:12;;;;;;;5.13;1.87;;;3.90;99.90;;;;;;4136950;28;20552;-74
2023/03/17 02:48:14;;;;;;;4.57;2.00;;;3.70;99.90;;;;;;4135256;28;20809;-73
2023/03/17 02:50:21;;;;;;;4.83;1.83;;;3.70;99.90;;;;;;4137459;28;20501;-74
2023/03/17 02:52:23;;;;;;;3.80;1.97;;;3.70;99.90;;;;;;4137253;28;20456;-74
2023/03/17 02:54:27;;;;;;;2.70;1.80;;;3.70;99.90;;;;;;4136823;28;21013;-75
2023/03/17 02:56:29;;;;;;;4.43;2.23;;;3.70;99.90;;;;;;4137720;28;20463;-75
2023/03/17 02:58:32;;;;;;;3.83;2.10;;;3.70;99.90;;;;;;4137832;28;20490;-74
2023/03/17 03:00:33;;;;;;;3.63;1.83;;;3.70;99.90;;;;;;4137861;28;20490;-75
2023/03/17 03:02:35;;;;;;;4.03;1.83;;;3.70;99.90;;;;;;4139619;28;20504;-74
2023/03/17 03:04:38;;;;;;;4.80;1.90;;;3.80;99.90;;;;;;4138586;28;20460;-73
2023/03/17 03:06:41;;;;;;;3.20;1.67;;;3.70;99.90;;;;;;4137436;28;20926;-75
2023/03/17 03:08:43;;;;;;;3.07;2.10;;;4.00;99.90;;;;;;4137214;28;20455;-75
2023/03/17 03:10:46;;;;;;;3.30;2.03;;;3.70;99.90;;;;;;4138674;28;20569;-74
2023/03/17 03:12:48;;;;;;;3.20;1.67;;;3.70;99.90;;;;;;4140617;28;20667;-74
2023/03/17 03:14:50;;;;;;;4.63;1.80;;;3.70;99.90;;;;;;4137683;28;20905;-74
2023/03/17 03:16:52;;;;;;;3.23;1.70;;;3.70;99.90;;;;;;4137698;28;20497;-75
2023/03/17 03:18:54;;;;;;;2.40;1.70;;;3.80;99.90;;;;;;4134301;28;20447;-75
2023/03/17 03:20:56;;;;;;;4.27;1.90;;;3.70;99.90;;;;;;4138556;28;20583;-75
2023/03/17 03:22:58;;;;;;;6.37;2.43;;;3.70;99.90;;;;;;4137360;28;20843;-75
2023/03/17 03:25:00;;;;;;;6.00;2.20;;;3.80;99.90;;;;;;4139090;28;20458;-74
2023/03/17 03:27:03;;;;;;;3.60;1.80;;;3.80;99.90;;;;;;4136839;28;20494;-74
2023/03/17 03:29:06;;;;;;;4.10;2.13;;;3.80;99.90;;;;;;4138618;28;20464;-74
2023/03/17 03:31:08;;;;;;;3.80;2.03;;;3.80;99.90;;;;;;4138185;28;20522;-75
2023/03/17 03:33:11;;;;;;;4.20;1.90;;;3.80;99.90;;;;;;4138583;28;21005;-75
2023/03/17 03:35:13;;;;;;;4.10;2.10;;;3.70;99.90;;;;;;4137576;28;20520;-73
2023/03/17 03:37:15;;;;;;;3.03;1.70;;;3.70;99.90;;;;;;4138711;28;20851;-73
2023/03/17 03:39:17;;;;;;;4.53;1.87;;;3.70;99.90;;;;;;4143960;28;21037;-75
2023/03/17 03:41:19;;;;;;;3.70;1.63;;;3.70;99.90;;;;;;4138195;28;20491;-76
2023/03/17 03:43:22;;;;;;;5.37;2.20;;;3.70;99.90;;;;;;4136804;28;20546;-74
2023/03/17 03:45:24;;;;;;;5.43;2.03;;;3.80;99.90;;;;;;4138979;28;20898;-73
2023/03/17 03:47:26;;;;;;;6.37;2.23;;;3.80;99.90;;;;;;4139449;28;20460;-74
2023/03/17 03:49:28;;;;;;;4.43;2.00;;;3.80;99.90;;;;;;4139744;28;20482;-75
2023/03/17 03:51:30;;;;;;;4.73;1.67;;;3.80;99.90;;;;;;4139238;28;20904;-74
2023/03/17 03:53:33;;;;;;;4.50;1.67;;;3.80;99.90;;;;;;4136417;28;20498;-73
2023/03/17 03:55:35;;;;;;;7.23;2.17;;;3.80;99.90;;;;;;4136861;28;20490;-75
2023/03/17 03:57:37;;;;;;;3.27;1.50;;;3.80;99.90;;;;;;4137892;28;20819;-74
2023/03/17 03:59:40;;;;;;;3.83;1.60;;;3.80;99.90;;;;;;4139671;28;20497;-73
2023/03/17 04:01:42;;;;;;;4.77;2.17;;;3.80;99.90;;;;;;4139012;28;20501;-73
2023/03/17 04:03:46;;;;;;;2.90;1.40;;;3.80;99.90;;;;;;4137547;28;20463;-72
2023/03/17 04:05:48;;;;;;;4.67;2.17;;;3.80;99.90;;;;;;4136748;28;20517;-75
2023/03/17 04:07:49;;;;;;;3.50;1.80;;;3.80;99.90;;;;;;4135135;28;20589;-73
2023/03/17 04:09:52;;;;;;;5.17;1.80;;;3.80;99.90;;;;;;4136926;28;20539;-75
2023/03/17 04:11:54;;;;;;;3.70;1.60;;;3.80;99.90;;;;;;4140400;28;21018;-74
2023/03/17 04:13:55;;;;;;;4.10;1.83;;;3.80;99.90;;;;;;4135726;28;20482;-75
2023/03/17 04:16:00;;;;;;;3.47;1.43;;;3.80;99.90;;;;;;4139602;28;20514;-72
2023/03/17 04:18:05;;;;;;;4.23;1.70;;;3.80;99.90;;;;;;4137055;28;20455;-72
2023/03/17 04:20:08;;;;;;;3.57;1.60;;;3.80;99.90;;;;;;4135082;28;20472;-73
2023/03/17 04:22:12;;;;;;;3.23;1.67;;;3.90;99.90;;;;;;4137147;28;20506;-73
2023/03/17 04:24:14;;;;;;;3.83;1.53;;;3.90;99.90;;;;;;4137115;28;20469;-73
2023/03/17 04:26:17;;;;;;;4.70;1.80;;;3.90;99.90;;;;;;4135335;28;20542;-72
2023/03/17 04:28:19;;;;;;;2.90;1.80;;;3.90;99.90;;;;;;4132706;28;20495;-72
2023/03/17 04:30:21;;;;;;;3.10;1.63;;;3.90;99.90;;;;;;4143977;28;20474;-72
2023/03/17 04:32:25;;;;;;;3.90;1.70;;;3.90;99.90;;;;;;4137208;28;20540;-72
2023/03/17 04:34:27;;;;;;;1.77;1.40;;;3.90;99.90;;;;;;4144222;28;20455;-72
2023/03/17 04:36:29;;;;;;;2.70;1.40;;;3.90;99.90;;;;;;4139517;28;20478;-77
2023/03/17 04:38:31;;;;;;;2.57;1.40;;;3.90;99.90;;;;;;4144938;28;20862;-71
2023/03/17 04:40:33;;;;;;;2.73;1.40;;;3.90;99.90;;;;;;4152445;28;20481;-71
2023/03/17 04:42:35;;;;;;;3.43;1.50;;;3.90;99.90;;;;;;4144003;28;20458;-70
2023/03/17 04:44:37;;;;;;;4.30;1.40;;;4.00;99.90;;;;;;4138949;28;20504;-71
2023/03/17 04:46:39;;;;;;;3.67;1.30;;;4.00;99.90;;;;;;4137381;28;20993;-72
2023/03/17 04:48:42;;;;;;;3.13;1.50;;;4.00;99.90;;;;;;4141695;28;20494;-71
2023/03/17 04:50:46;;;;;;;3.30;1.40;;;4.00;99.90;;;;;;4139172;28;20513;-71
2023/03/17 04:52:48;;;;;;;3.50;1.40;;;4.00;99.90;;;;;;4146578;28;20974;-71
2023/03/17 04:54:53;;;;;;;2.30;1.40;;;4.00;99.90;;;;;;4142147;28;20456;-71
2023/03/17 04:56:55;;;;;;;3.90;1.47;;;4.00;99.90;;;;;;4137030;28;20494;-72
2023/03/17 04:58:57;;;;;;;3.03;1.20;;;4.00;99.90;;;;;;4141670;28;20462;-72
2023/03/17 05:01:01;;;;;;;2.30;1.20;;;4.00;99.90;;;;;;4143280;28;20465;-71
2023/03/17 05:03:03;;;;;;;3.27;1.30;;;3.90;99.90;;;;;;4147126;28;20542;-74
2023/03/17 05:05:07;;;;;;;2.37;1.30;;;3.90;99.90;;;;;;4144261;28;20549;-74
2023/03/17 05:07:09;;;;;;;3.20;1.47;;;3.90;99.90;;;;;;4137701;28;20466;-75
2023/03/17 05:09:11;;;;;;;2.30;1.30;;;3.90;99.90;;;;;;4139578;28;20915;-73
2023/03/17 05:11:14;;;;;;;2.43;1.30;;;4.00;99.90;;;;;;4139108;28;21216;-72
2023/03/17 05:13:17;;;;;;;5.07;1.40;;;4.00;99.90;;;;;;4139531;28;20460;-72
2023/03/17 05:15:20;;;;;;;2.67;1.40;;;3.90;99.90;;;;;;4140929;28;20845;-73
2023/03/17 05:17:22;;;;;;;2.30;1.37;;;4.00;99.90;;;;;;4146397;28;20584;-72
2023/03/17 05:19:25;;;;;;;4.10;1.50;;;4.00;99.90;;;;;;4144977;28;20456;-72
2023/03/17 05:21:28;;;;;;;3.20;1.57;;;4.00;99.90;;;;;;4141336;28;20475;-72
2023/03/17 05:23:30;;;;;;;2.40;1.43;;;4.00;99.90;;;;;;4140493;28;20460;-72
2023/03/17 05:25:32;;;;;;;3.50;1.40;;;4.10;99.90;;;;;;4137561;28;20648;-72
2023/03/17 05:27:34;;;;;;;8.60;1.67;;;4.00;99.90;;;;;;4146974;28;20451;-72
2023/03/17 05:29:36;;;;;;;2.27;1.40;;;4.00;99.90;;;;;;4140937;28;20451;-73
2023/03/17 05:31:38;;;;;;;2.83;1.33;;;4.00;99.90;;;;;;4136498;28;20460;-73
2023/03/17 05:33:43;;;;;;;3.77;1.63;;;4.00;99.90;;;;;;4144593;28;20487;-73
2023/03/17 05:35:46;;;;;;;3.63;1.50;;;4.00;99.90;;;;;;4135922;28;20538;-73
2023/03/17 05:37:49;;;;;;;3.17;1.63;;;4.00;99.90;;;;;;4137645;28;20447;-73
2023/03/17 05:39:52;;;;;;;3.93;1.90;;;4.00;99.90;;;;;;4148162;28;20474;-73
2023/03/17 05:41:55;;;;;;;7.17;2.13;;;4.00;99.90;;;;;;4150631;28;20555;-73
2023/03/17 05:43:57;;;;;;;3.80;1.87;;;4.00;99.90;;;;;;4145289;28;20471;-73
2023/03/17 05:45:59;;;;;;;4.87;1.80;;;4.00;99.90;;;;;;4145576;28;20464;-73
2023/03/17 05:48:02;;;;;;;2.40;1.43;;;4.00;99.90;;;;;;4154215;28;20453;-73
2023/03/17 05:50:05;;;;;;;4.07;1.70;;;4.00;99.90;;;;;;4150211;28;20487;-73
2023/03/17 05:52:07;;;;;;;3.37;1.70;;;4.00;99.90;;;;;;4148978;28;20498;-73
2023/03/17 05:54:11;;;;;;;2.60;1.43;;;3.90;99.90;;;;;;4145025;28;20491;-73
2023/03/17 05:56:12;;;;;;;2.63;1.60;;;4.00;99.90;;;;;;4131553;28;20511;-73
2023/03/17 05:58:15;;;;;;;4.90;2.03;;;4.00;99.90;;;;;;4143898;28;20930;-73
2023/03/17 06:00:20;;;;;;;2.43;1.30;;;3.90;99.90;;;;;;4146261;28;20458;-73
2023/03/17 06:02:22;;;;;;;4.13;1.63;;;4.00;99.90;;;;;;4144162;28;20516;-73
2023/03/17 06:04:25;;;;;;;3.40;1.60;;;4.00;99.90;;;;;;4150242;28;20453;-73
2023/03/17 06:06:27;;;;;;;2.97;1.50;;;4.00;99.90;;;;;;4150239;28;20498;-73
2023/03/17 06:08:29;;;;;;;3.63;1.80;;;4.10;99.90;;;;;;4145057;28;20453;-73
2023/03/17 06:10:33;;;;;;;3.83;1.80;;;4.10;99.90;;;;;;4141988;28;20525;-73
2023/03/17 06:12:35;;;;;;;9.20;2.80;;;4.10;99.90;;;;;;4142127;28;20464;-73
2023/03/17 06:14:37;;;;;;;7.50;2.43;;;4.10;99.90;;;;;;4146533;28;20456;-73
2023/03/17 06:16:39;;;;;;;5.50;2.57;;;4.10;99.90;;;;;;4139529;28;20519;-73
2023/03/17 06:18:41;;;;;;;5.40;1.93;;;4.10;99.90;;;;;;4141522;28;20470;-73
2023/03/17 06:20:43;;;;;;;4.73;2.00;;;4.10;99.90;;;;;;4141324;28;20506;-73
2023/03/17 06:22:45;;;;;;;4.27;1.93;;;4.20;99.90;;;;;;4141528;28;20872;-72
2023/03/17 06:24:48;;;;;;;6.40;2.53;;;4.10;99.90;;;;;;4140148;28;20486;-73
2023/03/17 06:26:51;;;;;;;3.63;1.93;;;4.10;99.90;;;;;;4152137;28;20535;-73
2023/03/17 06:28:53;;;;;;;3.50;1.80;;;4.10;99.90;;;;;;4139107;28;20485;-73
2023/03/17 06:30:55;;;;;;;4.23;1.70;;;4.10;99.90;;;;;;4148118;28;20992;-73
2023/03/17 06:32:57;;;;;;;4.80;2.00;;;4.10;99.90;;;;;;4139084;28;20879;-73
2023/03/17 06:35:00;;;;;;;3.20;1.60;;;4.10;99.90;;;;;;4141786;28;20458;-73
2023/03/17 06:37:02;;;;;;;4.20;1.90;;;4.10;99.90;;;;;;4137814;28;20517;-73
2023/03/17 06:39:05;;;;;;;3.10;1.80;;;4.20;99.90;;;;;;4142897;28;20482;-73
2023/03/17 06:41:07;;;;;;;3.03;1.50;;;4.10;99.90;;;;;;4141442;28;20489;-73
2023/03/17 06:43:11;;;;;;;3.30;1.83;;;4.20;99.90;;;;;;4144111;28;20544;-73
2023/03/17 06:45:13;;;;;;;4.40;1.97;;;4.30;99.90;;;;;;4142443;28;20898;-74
2023/03/17 06:47:15;;;;;;;3.30;1.70;;;4.20;99.90;;;;;;4144029;28;20450;-73
2023/03/17 06:49:17;;;;;;;4.13;1.50;;;4.30;99.90;;;;;;4137946;28;20854;-72
2023/03/17 06:51:19;;;;;;;5.63;1.87;;;4.30;99.90;;;;;;4144163;28;20489;-74
2023/03/17 06:53:21;;;;;;;3.47;1.70;;;4.30;99.90;;;;;;4142568;28;20464;-74
2023/03/17 06:55:23;;;;;;;2.93;1.80;;;4.30;99.90;;;;;;4147641;28;20448;-72
2023/03/17 06:57:25;;;;;;;4.07;1.70;;;4.30;99.90;;;;;;4146220;28;20507;-72
2023/03/17 06:59:29;;;;;;;5.83;2.70;;;4.30;99.90;;;;;;4138662;28;21107;-73
2023/03/17 07:01:31;;;;;;;6.07;2.40;;;4.30;99.90;;;;;;4144363;28;20468;-73
2023/03/17 07:03:34;;;;;;;6.70;2.40;;;4.40;99.90;;;;;;4144407;28;20476;-72
2023/03/17 07:05:38;;;;;;;4.90;2.23;;;4.30;99.90;;;;;;4147280;28;20452;-73
2023/03/17 07:07:42;;;;;;;3.90;1.80;;;4.40;99.90;;;;;;4143998;28;21156;-73
2023/03/17 07:09:45;;;;;;;4.23;2.03;;;4.40;99.90;;;;;;4147508;28;20521;-74
2023/03/17 07:11:47;;;;;;;5.00;2.23;;;4.40;99.90;;;;;;4144148;28;21005;-72
2023/03/17 07:13:49;;;;;;;6.37;2.73;;;4.40;99.90;;;;;;4146754;28;20508;-74
2023/03/17 07:15:54;;;;;;;5.93;2.50;;;4.40;99.90;;;;;;4140435;28;20555;-73
2023/03/17 07:17:55;;;;;;;5.00;2.20;;;4.40;99.90;;;;;;4141689;28;20477;-73
2023/03/17 07:19:57;;;;;;;6.07;2.20;;;4.50;99.90;;;;;;4142613;28;21000;-74
2023/03/17 07:21:59;;;;;;;5.10;2.10;;;4.50;99.90;;;;;;4153587;28;21893;-73
2023/03/17 07:24:03;;;;;;;4.33;2.10;;;4.50;99.90;;;;;;4152265;28;20462;-74
2023/03/17 07:26:05;;;;;;;6.27;2.13;;;4.60;99.90;;;;;;4154100;28;20508;-73
2023/03/17 07:28:07;;;;;;;3.57;1.73;;;4.50;99.90;;;;;;4150333;28;20537;-73
2023/03/17 07:30:11;;;;;;;4.63;2.03;;;4.60;99.90;;;;;;4146822;28;20468;-74
2023/03/17 07:32:15;;;;;;;4.03;2.00;;;4.60;99.90;;;;;;4149354;28;20448;-74
2023/03/17 07:34:17;;;;;;;3.80;1.53;;;4.70;99.90;;;;;;4157625;28;20468;-73
2023/03/17 07:36:18;;;;;;;3.37;1.70;;;4.70;99.90;;;;;;4150997;28;20496;-73
2023/03/17 07:38:21;;;;;;;4.87;1.80;;;4.70;99.90;;;;;;4156579;28;20491;-73
2023/03/17 07:40:23;;;;;;;4.60;1.67;;;4.80;99.90;;;;;;4156888;28;20488;-73
2023/03/17 07:42:26;;;;;;;2.83;1.33;;;4.90;99.90;;;;;;4154657;28;20467;-73
2023/03/17 07:44:29;;;;;;;2.83;1.50;;;5.00;99.90;;;;;;4137504;28;20541;-74
2023/03/17 07:46:31;;;;;;;2.67;1.60;;;5.00;99.90;;;;;;4143414;28;21205;-74
2023/03/17 07:48:39;;;;;;;4.40;1.97;;;5.10;99.90;;;;;;4144083;28;20465;-74
2023/03/17 07:50:41;;;;;;;3.97;1.50;;;5.10;99.90;;;;;;4148630;28;20515;-73
2023/03/17 07:52:43;;;;;;;3.33;1.43;;;5.20;99.90;;;;;;4144868;28;20457;-73
2023/03/17 07:54:45;;;;;;;3.17;1.53;;;5.20;99.90;;;;;;4147769;28;20452;-73
2023/03/17 07:56:47;;;;;;;2.73;1.53;;;5.30;99.90;;;;;;4145097;28;20524;-73
2023/03/17 07:58:49;;;;;;;4.70;2.17;;;5.40;99.90;;;;;;4144431;28;20496;-74
2023/03/17 08:00:51;;;;;;;6.47;2.63;;;5.40;99.90;;;;;;4151187;28;20721;-75
2023/03/17 08:02:56;;;;;;;4.60;1.87;;;5.40;99.90;;;;;;4154250;28;20474;-74
2023/03/17 08:04:59;;;;;;;2.87;1.40;;;5.50;99.90;;;;;;4162771;28;20460;-73
2023/03/17 08:07:02;;;;;;;5.37;1.70;;;5.60;99.90;;;;;;4137215;28;20471;-73
2023/03/17 08:09:04;;;;;;;4.93;1.67;;;5.60;99.90;;;;;;4151800;28;20493;-74
2023/03/17 08:11:06;;;;;;;3.03;1.63;;;5.60;99.90;;;;;;4156601;28;20472;-73
2023/03/17 08:13:08;;;;;;;2.87;1.47;;;5.70;99.90;;;;;;4149056;28;21021;-73
2023/03/17 08:15:11;;;;;;;3.40;1.53;;;5.70;99.90;;;;;;4150104;28;20546;-73
2023/03/17 08:17:13;;;;;;;3.23;1.47;;;5.70;99.90;;;;;;4151502;28;20579;-74
2023/03/17 08:19:18;;;;;;;2.70;1.30;;;5.80;99.90;;;;;;4144876;28;20462;-74
2023/03/17 08:21:21;;;;;;;2.47;1.10;;;5.90;99.90;;;;;;4148739;28;21013;-73
2023/03/17 08:23:24;;;;;;;3.83;1.33;;;5.90;93.10;;;;;;4147177;28;20467;-74
2023/03/17 08:25:26;;;;;;;3.17;1.53;;;6.00;88.20;;;;;;4145022;28;20520;-73
2023/03/17 08:27:28;;;;;;;4.13;1.70;;;6.10;82.00;;;;;;4146900;28;20462;-74
2023/03/17 08:29:30;;;;;;;1.90;1.13;;;6.20;81.40;;;;;;4149300;28;20460;-74
2023/03/17 08:31:32;;;;;;;2.87;1.40;;;6.30;74.40;;;;;;4147352;28;20514;-77
2023/03/17 08:33:34;;;;;;;5.40;1.80;;;6.40;75.30;;;;;;4151375;28;20882;-74
2023/03/17 08:35:36;;;;;;;4.90;1.50;;;6.50;71.30;;;;;;4147392;28;20492;-75
2023/03/17 08:37:40;;;;;;;7.37;1.47;;;6.60;89.80;;;;;;4144430;28;20827;-74
2023/03/17 08:39:42;;;;;;;2.97;1.50;;;6.60;76.70;;;;;;4144526;28;20468;-75
2023/03/17 08:41:44;;;;;;;3.90;1.30;;;6.70;87.20;;;;;;4140142;28;20497;-76
2023/03/17 08:43:47;;;;;;;3.87;1.67;;;6.80;76.40;;;;;;4148049;28;20544;-74
2023/03/17 08:45:49;;;;;;;4.07;1.40;;;6.90;70.00;;;;;;4141766;28;21212;-74
2023/03/17 08:47:52;;;;;;;4.30;1.60;;;7.00;83.50;;;;;;4145351;28;20964;-75
2023/03/17 08:49:55;;;;;;;2.83;1.47;;;7.10;91.90;;;;;;4146045;28;20450;-74
2023/03/17 08:51:57;;;;;;;1.93;1.13;;;7.20;93.90;;;;;;4150407;28;20453;-74
2023/03/17 08:54:00;;;;;;;2.60;1.50;;;7.20;74.60;;;;;;4133698;28;20446;-74
2023/03/17 08:56:04;;;;;;;2.93;1.33;;;7.30;73.90;;;;;;4147439;28;20503;-73
2023/03/17 08:58:06;;;;;;;5.37;2.30;;;7.30;90.10;;;;;;4141035;28;20489;-74
2023/03/17 09:00:10;;;;;;;5.13;2.10;;;7.30;83.70;;;;;;4145366;28;20477;-73
2023/03/17 09:02:13;;;;;;;2.83;1.73;;;7.40;96.40;;;;;;4150833;28;20480;-73
2023/03/17 09:04:15;;;;;;;6.13;1.47;;;7.50;94.30;;;;;;4146160;28;20550;-73
2023/03/17 09:06:18;;;;;;;2.93;1.43;;;7.60;70.70;;;;;;4144362;28;20488;-74
2023/03/17 09:08:20;;;;;;;6.00;1.60;;;7.70;67.50;;;;;;4146266;28;20886;-74
2023/03/17 09:10:23;;;;;;;2.63;1.20;;;7.80;72.00;;;;;;4145471;28;20474;-74
2023/03/17 09:12:25;;;;;;;4.97;1.43;;;7.90;83.50;;;;;;4148004;28;20500;-74
2023/03/17 09:14:28;;;;;;;3.30;1.27;;;8.00;69.00;;;;;;4141691;28;20616;-74
2023/03/17 09:16:32;;;;;;;3.20;1.33;;;8.10;64.20;;;;;;4141701;28;20286;-74
2023/03/17 09:18:34;;;;;;;3.50;1.30;;;8.20;79.20;;;;;;4143644;28;20491;-73
2023/03/17 09:20:36;;;;;;;3.23;1.20;;;8.30;65.40;;;;;;4144632;28;20227;-73
2023/03/17 09:22:38;;;;;;;5.30;1.80;;;8.40;66.60;;;;;;4144740;28;21139;-73
2023/03/17 09:24:40;;;;;;;11.10;4.10;;;8.50;66.10;;;;;;4139812;28;20242;-74
2023/03/17 09:26:44;;;;;;;7.97;2.53;;;8.70;64.30;;;;;;4143764;28;20215;-73
2023/03/17 09:28:46;;;;;;;2.90;1.33;;;8.80;62.10;;;;;;4143381;28;20711;-74
2023/03/17 09:30:48;;;;;;;2.23;1.10;;;8.90;80.20;;;;;;4145587;28;20259;-73
2023/03/17 09:32:50;;;;;;;4.13;1.30;;;9.00;79.30;;;;;;4145581;28;20209;-74
2023/03/17 09:34:52;;;;;;;2.97;1.00;;;9.20;72.40;;;;;;4143119;28;20209;-73
2023/03/17 09:36:54;;;;;;;7.43;1.30;;;9.20;68.90;;;;;;4147889;28;20210;-73
2023/03/17 09:38:56;;;;;;;3.57;1.10;;;9.40;58.60;;;;;;4147928;28;20249;-73
2023/03/17 09:41:07;;;;;;;4.43;1.37;;;9.50;61.30;;;;;;4142505;28;20230;-73
2023/03/17 09:43:23;;;;;;;4.03;1.10;;;9.60;60.40;;;;;;4153945;28;20216;-74
2023/03/17 09:45:32;;;;;;;2.17;1.30;;;9.80;56.20;;;;;;4145055;28;20212;-73
2023/03/17 09:48:03;;;;;;;2.60;1.07;;;9.90;58.60;;;;;;4143731;28;20202;-74
2023/03/17 09:50:13;;;;;;;6.80;1.23;;;10.10;54.10;;;;;;4145134;28;20258;-74
2023/03/17 09:52:19;;;;;;;4.00;1.03;;;10.10;52.40;;;;;;4154491;28;20198;-73
2023/03/17 09:54:26;;;;;;;5.07;1.37;;;10.20;53.30;;;;;;4158837;28;20215;-73
2023/03/17 09:56:31;;;;;;;4.57;1.83;;;10.30;58.30;;;;;;4153744;28;20313;-73
2023/03/17 09:58:36;;;;;;;3.93;1.20;;;10.40;59.40;;;;;;4153669;28;20222;-74
2023/03/17 10:00:38;;;;;;;4.63;0.93;;;10.50;58.00;;;;;;4152138;28;20715;-74
2023/03/17 10:02:42;;;;;;;1.93;1.20;;;10.60;58.70;;;;;;4149671;28;20248;-73
2023/03/17 10:04:45;;;;;;;3.30;0.93;;;10.70;57.60;;;;;;4153904;28;20672;-74
2023/03/17 10:06:47;;;;;;;1.83;0.93;;;10.70;56.90;;;;;;4152157;28;20214;-73
2023/03/17 10:08:56;;;;;;;3.07;1.27;;;10.80;52.40;;;;;;4150990;28;20742;-74
2023/03/17 10:11:08;;;;;;;3.40;1.70;;;10.90;53.50;;;;;;4153254;28;20733;-74
2023/03/17 10:13:20;;;;;;;4.87;1.33;;;11.00;53.40;;;;;;4146544;28;20211;-74
2023/03/17 10:15:37;;;;;;;2.70;1.30;;;11.20;52.50;;;;;;4148301;28;20212;-74
2023/03/17 10:17:42;;;;;;;2.90;1.03;;;11.30;54.20;;;;;;4138979;28;20224;-74
2023/03/17 10:19:48;;;;;;;2.17;0.87;;;11.40;57.60;;;;;;4147874;28;20204;-74
2023/03/17 10:21:53;;;;;;;3.90;1.00;;;11.50;51.00;;;;;;4148690;28;20807;-74
2023/03/17 10:23:58;;;;;;;1.70;1.00;;;11.70;50.30;;;;;;4147992;28;20229;-74
2023/03/17 10:26:05;;;;;;;3.23;1.30;;;11.80;51.00;;;;;;4149979;28;20208;-73
2023/03/17 10:28:18;;;;;;;2.67;1.30;;;12.00;50.80;;;;;;4150782;28;20203;-72
2023/03/17 10:30:23;;;;;;;2.60;1.00;;;12.10;52.80;;;;;;4142700;28;20681;-75
2023/03/17 10:32:27;;;;;;;1.90;0.90;;;12.20;49.60;;;;;;4138680;28;20213;-74
2023/03/17 10:34:31;;;;;;;3.87;1.10;;;12.40;47.40;;;;;;4141873;28;20261;-73
2023/03/17 10:36:36;;;;;;;3.63;0.93;;;12.60;47.80;;;;;;4143329;28;20280;-72
2023/03/17 10:38:38;;;;;;;2.57;1.30;;;12.60;47.30;;;;;;4139611;28;20251;-74
2023/03/17 10:40:40;;;;;;;2.63;1.50;;;12.80;48.00;;;;;;4141168;28;20258;-75
2023/03/17 10:42:47;;;;;;;6.20;3.00;;;12.80;46.00;;;;;;4140544;28;20202;-75
2023/03/17 10:44:53;;;;;;;3.50;1.73;;;12.90;44.20;;;;;;4143252;28;20573;-74
2023/03/17 10:46:57;;;;;;;3.30;1.33;;;13.00;44.60;;;;;;4142207;28;20590;-73
2023/03/17 10:49:07;;;;;;;2.37;1.30;;;13.10;43.90;;;;;;4142442;28;20196;-74